Parkrose, Oregon
Current Conditions -  °F | °C
As of 10:21 AM on Sunday 25 Jan 2015 (Local Time) from KTTD Reporting Station
Haze Haze  
Wind Chill:   Ceiling: 300
Heat Index:   Visibility: 3mi
Dew Point:   Wind: 3mph
Humidity: 93%   Direction: 310°NW
Pressure: 30.15"   Gusts: NA
Location:  45.5423°N, 122.5°W
Report Text: KTTD 251821Z 31003KT 3SM BR BKN003 BKN007 08/07 A3015 RMK AO2 T00830072
Loading
Personal Weather Stations






























Interactive Weather Map New forecast layout! Learn more

10-Day Weather Forecast

Advertisements
Track Severe Weather on mobile